Time,TemperatureF,DewpointF,PressureIn,WindDirection,WindDirectionDegrees,WindSpeedMPH,WindSpeedGustMPH,Humidity,HourlyPrecipIn,Conditions,Clouds,dailyrainin,SolarRadiationWatts/m^2,SoftwareType,DateUTC
2013-04-19 00:01:00,76.9,68.8,29.92,North,-999,0.0,0.0,76,0.00,,,-99.99,0,WeatherLink 5.4,2013-04-19 04:01:00,
2013-04-19 00:02:00,76.9,68.8,29.92,North,-999,0.0,0.0,76,0.00,,,-99.99,0,WeatherLink 5.4,2013-04-19 04:02:00,
2013-04-19 00:04:00,77.0,68.9,29.92,East,90,2.0,7.0,76,0.00,,,-99.99,0,WeatherLink 5.4,2013-04-19 04:04:00,
2013-04-19 00:10:00,77.0,68.9,29.92,North,-999,0.0,0.0,76,0.00,,,-99.99,0,WeatherLink 5.4,2013-04-19 04:10:00,
2013-04-19 00:11:00,76.9,68.8,29.92,East,90,1.0,6.0,76,0.00,,,-99.99,0,WeatherLink 5.4,2013-04-19 04:11:00,
2013-04-19 00:17:00,76.8,68.7,29.92,North,-999,0.0,0.0,76,0.00,,,-99.99,0,WeatherLink 5.4,2013-04-19 04:17:00,
2013-04-19 00:22:00,76.8,68.7,29.92,East,90,5.0,8.0,76,0.00,,,-99.99,0,WeatherLink 5.4,2013-04-19 04:22:00,
2013-04-19 00:28:00,76.8,68.7,29.91,North,-999,0.0,0.0,76,0.00,,,-99.99,0,WeatherLink 5.4,2013-04-19 04:28:00,
2013-04-19 00:33:00,76.8,68.7,29.91,North,-999,0.0,0.0,76,0.00,,,-99.99,0,WeatherLink 5.4,2013-04-19 04:33:00,
2013-04-19 00:39:00,76.8,68.7,29.91,East,90,1.0,8.0,76,0.00,,,-99.99,0,WeatherLink 5.4,2013-04-19 04:39:00,
2013-04-19 00:44:00,76.8,68.7,29.91,East,90,2.0,8.0,76,0.00,,,-99.99,0,WeatherLink 5.4,2013-04-19 04:44:00,
2013-04-19 00:50:00,76.8,68.7,29.91,North,-999,0.0,0.0,76,0.00,,,-99.99,0,WeatherLink 5.4,2013-04-19 04:50:00,
2013-04-19 00:56:00,76.8,68.7,29.91,North,-999,0.0,0.0,76,0.00,,,-99.99,0,WeatherLink 5.4,2013-04-19 04:56:00,
2013-04-19 01:02:00,76.8,68.7,29.91,East,90,3.0,8.0,76,0.00,,,-99.99,0,WeatherLink 5.4,2013-04-19 05:02:00,
2013-04-19 01:07:00,76.8,68.7,29.91,North,-999,0.0,0.0,76,0.00,,,-99.99,0,WeatherLink 5.4,2013-04-19 05:07:00,
2013-04-19 01:12:00,76.8,68.7,29.91,ESE,112,4.0,11.0,76,0.00,,,-99.99,0,WeatherLink 5.4,2013-04-19 05:12:00,
2013-04-19 01:17:00,76.8,68.3,29.91,East,90,2.0,6.0,75,0.00,,,-99.99,0,WeatherLink 5.4,2013-04-19 05:17:00,
2013-04-19 01:23:00,76.8,68.3,29.91,East,90,3.0,8.0,75,0.00,,,-99.99,0,WeatherLink 5.4,2013-04-19 05:23:00,
2013-04-19 01:29:00,76.8,68.3,29.90,North,-999,0.0,0.0,75,0.00,,,-99.99,0,WeatherLink 5.4,2013-04-19 05:29:00,
2013-04-19 01:34:00,76.8,68.3,29.90,North,-999,0.0,0.0,75,0.00,,,-99.99,0,WeatherLink 5.4,2013-04-19 05:34:00,
2013-04-19 01:40:00,76.8,68.3,29.90,North,-999,0.0,0.0,75,0.00,,,-99.99,0,WeatherLink 5.4,2013-04-19 05:40:00,
2013-04-19 01:46:00,76.7,68.2,29.90,North,-999,0.0,0.0,75,0.00,,,-99.99,0,WeatherLink 5.4,2013-04-19 05:46:00,
2013-04-19 01:51:00,76.7,68.2,29.90,East,90,1.0,7.0,75,0.00,,,-99.99,0,WeatherLink 5.4,2013-04-19 05:51:00,
2013-04-19 01:56:00,76.7,68.2,29.89,East,90,4.0,13.0,75,0.00,,,-99.99,0,WeatherLink 5.4,2013-04-19 05:56:00,
2013-04-19 02:01:00,76.8,67.9,29.89,East,90,1.0,5.0,74,0.00,,,-99.99,0,WeatherLink 5.4,2013-04-19 06:01:00,
2013-04-19 02:07:00,76.8,67.9,29.89,North,-999,0.0,0.0,74,0.00,,,-99.99,0,WeatherLink 5.4,2013-04-19 06:07:00,
2013-04-19 02:12:00,76.8,68.3,29.88,East,90,1.0,6.0,75,0.00,,,-99.99,0,WeatherLink 5.4,2013-04-19 06:12:00,
2013-04-19 02:18:00,76.8,68.3,29.88,North,-999,0.0,0.0,75,0.00,,,-99.99,0,WeatherLink 5.4,2013-04-19 06:18:00,
2013-04-19 02:24:00,76.8,68.3,29.89,North,-999,0.0,0.0,75,0.00,,,-99.99,0,WeatherLink 5.4,2013-04-19 06:24:00,
2013-04-19 02:29:00,76.8,68.3,29.89,East,90,1.0,6.0,75,0.00,,,-99.99,0,WeatherLink 5.4,2013-04-19 06:29:00,
2013-04-19 02:35:00,76.8,69.0,29.89,North,-999,0.0,0.0,77,0.00,,,-99.99,0,WeatherLink 5.4,2013-04-19 06:35:00,
2013-04-19 02:40:00,76.7,68.9,29.88,North,-999,0.0,0.0,77,0.00,,,-99.99,0,WeatherLink 5.4,2013-04-19 06:40:00,
2013-04-19 02:46:00,76.5,68.7,29.88,North,-999,0.0,0.0,77,0.00,,,-99.99,0,WeatherLink 5.4,2013-04-19 06:46:00,
2013-04-19 02:52:00,76.5,69.5,29.88,North,-999,0.0,0.0,79,0.00,,,-99.99,0,WeatherLink 5.4,2013-04-19 06:52:00,
2013-04-19 02:57:00,76.3,69.7,29.88,North,-999,0.0,0.0,80,0.00,,,-99.99,0,WeatherLink 5.4,2013-04-19 06:57:00,
2013-04-19 03:03:00,76.0,68.6,29.88,ESE,112,3.0,8.0,78,0.00,,,-99.99,0,WeatherLink 5.4,2013-04-19 07:03:00,
2013-04-19 03:08:00,76.1,68.0,29.88,East,90,1.0,6.0,76,0.00,,,-99.99,0,WeatherLink 5.4,2013-04-19 07:08:00,
2013-04-19 03:14:00,76.3,68.2,29.87,ESE,112,2.0,8.0,76,0.00,,,-99.99,0,WeatherLink 5.4,2013-04-19 07:14:00,
2013-04-19 03:20:00,76.5,68.0,29.87,ESE,112,2.0,7.0,75,0.00,,,-99.99,0,WeatherLink 5.4,2013-04-19 07:20:00,
2013-04-19 03:25:00,76.5,68.0,29.87,East,90,0.0,1.0,75,0.00,,,-99.99,0,WeatherLink 5.4,2013-04-19 07:25:00,
2013-04-19 03:31:00,76.5,68.7,29.87,ESE,112,2.0,8.0,77,0.00,,,-99.99,0,WeatherLink 5.4,2013-04-19 07:31:00,
2013-04-19 03:37:00,75.8,69.2,29.87,North,-999,0.0,0.0,80,0.00,,,-99.99,0,WeatherLink 5.4,2013-04-19 07:37:00,
2013-04-19 03:42:00,75.3,69.4,29.87,North,-999,0.0,0.0,82,0.00,,,-99.99,0,WeatherLink 5.4,2013-04-19 07:42:00,
2013-04-19 03:47:00,74.7,69.2,29.87,ESE,112,3.0,8.0,83,0.00,,,-99.99,0,WeatherLink 5.4,2013-04-19 07:47:00,
2013-04-19 03:53:00,74.2,69.1,29.87,North,-999,0.0,0.0,84,0.00,,,-99.99,0,WeatherLink 5.4,2013-04-19 07:53:00,
2013-04-19 03:58:00,74.0,69.2,29.87,North,-999,0.0,0.0,85,0.00,,,-99.99,0,WeatherLink 5.4,2013-04-19 07:58:00,
2013-04-19 04:03:00,73.9,69.1,29.87,North,-999,0.0,0.0,85,0.00,,,-99.99,0,WeatherLink 5.4,2013-04-19 08:03:00,
2013-04-19 04:08:00,73.8,69.3,29.87,North,-999,0.0,0.0,86,0.00,,,-99.99,0,WeatherLink 5.4,2013-04-19 08:08:00,
2013-04-19 04:13:00,73.7,69.2,29.87,North,-999,0.0,0.0,86,0.00,,,-99.99,0,WeatherLink 5.4,2013-04-19 08:13:00,
2013-04-19 04:19:00,73.7,69.6,29.87,North,-999,0.0,0.0,87,0.00,,,-99.99,0,WeatherLink 5.4,2013-04-19 08:19:00,
2013-04-19 04:24:00,73.7,69.6,29.87,North,-999,0.0,0.0,87,0.00,,,-99.99,0,WeatherLink 5.4,2013-04-19 08:24:00,
2013-04-19 04:30:00,73.5,69.4,29.87,North,-999,0.0,0.0,87,0.00,,,-99.99,0,WeatherLink 5.4,2013-04-19 08:30:00,
2013-04-19 04:36:00,73.5,69.4,29.87,North,-999,0.0,0.0,87,0.00,,,-99.99,0,WeatherLink 5.4,2013-04-19 08:36:00,
2013-04-19 04:41:00,73.5,69.4,29.88,North,-999,0.0,0.0,87,0.00,,,-99.99,0,WeatherLink 5.4,2013-04-19 08:41:00,
2013-04-19 04:47:00,73.5,69.7,29.88,North,-999,0.0,0.0,88,0.00,,,-99.99,0,WeatherLink 5.4,2013-04-19 08:47:00,
2013-04-19 04:53:00,73.5,69.7,29.88,North,-999,0.0,0.0,88,0.00,,,-99.99,0,WeatherLink 5.4,2013-04-19 08:53:00,
2013-04-19 04:59:00,73.5,69.7,29.88,North,-999,0.0,0.0,88,0.00,,,-99.99,0,WeatherLink 5.4,2013-04-19 08:59:00,
2013-04-19 05:04:00,73.5,69.7,29.88,North,-999,0.0,0.0,88,0.00,,,-99.99,0,WeatherLink 5.4,2013-04-19 09:04:00,
2013-04-19 05:09:00,73.5,69.7,29.88,North,-999,0.0,0.0,88,0.00,,,-99.99,0,WeatherLink 5.4,2013-04-19 09:09:00,
2013-04-19 05:15:00,73.5,69.7,29.88,North,-999,0.0,0.0,88,0.00,,,-99.99,0,WeatherLink 5.4,2013-04-19 09:15:00,
2013-04-19 05:21:00,73.5,69.7,29.88,North,-999,0.0,0.0,88,0.00,,,-99.99,0,WeatherLink 5.4,2013-04-19 09:21:00,
2013-04-19 05:26:00,73.5,69.7,29.88,North,-999,0.0,0.0,88,0.00,,,-99.99,0,WeatherLink 5.4,2013-04-19 09:26:00,
2013-04-19 05:32:00,73.5,69.7,29.88,North,-999,0.0,0.0,88,0.00,,,-99.99,0,WeatherLink 5.4,2013-04-19 09:32:00,
2013-04-19 05:37:00,73.5,69.7,29.88,North,-999,0.0,0.0,88,0.00,,,-99.99,0,WeatherLink 5.4,2013-04-19 09:37:00,
2013-04-19 05:42:00,73.5,69.7,29.89,North,-999,0.0,0.0,88,0.00,,,-99.99,0,WeatherLink 5.4,2013-04-19 09:42:00,
2013-04-19 05:49:00,73.5,69.7,29.89,North,-999,0.0,0.0,88,0.00,,,-99.99,0,WeatherLink 5.4,2013-04-19 09:49:00,
2013-04-19 05:54:00,73.5,69.7,29.89,North,-999,0.0,0.0,88,0.00,,,-99.99,0,WeatherLink 5.4,2013-04-19 09:54:00,
2013-04-19 05:59:00,73.5,69.7,29.89,North,-999,0.0,0.0,88,0.00,,,-99.99,0,WeatherLink 5.4,2013-04-19 09:59:00,
2013-04-19 06:05:00,73.5,69.7,29.89,North,-999,0.0,0.0,88,0.00,,,-99.99,5,WeatherLink 5.4,2013-04-19 10:05:00,
2013-04-19 06:11:00,73.5,69.7,29.90,North,-999,0.0,0.0,88,0.00,,,-99.99,11,WeatherLink 5.4,2013-04-19 10:11:00,
2013-04-19 06:16:00,73.7,69.6,29.90,North,-999,0.0,0.0,87,0.00,,,-99.99,26,WeatherLink 5.4,2013-04-19 10:16:00,
2013-04-19 06:22:00,73.9,69.8,29.90,North,-999,0.0,0.0,87,0.00,,,-99.99,34,WeatherLink 5.4,2013-04-19 10:22:00,
2013-04-19 06:28:00,73.9,69.8,29.91,ESE,112,0.0,1.0,87,0.00,,,-99.99,35,WeatherLink 5.4,2013-04-19 10:28:00,
2013-04-19 06:34:00,74.0,69.5,29.91,North,-999,0.0,0.0,86,0.00,,,-99.99,39,WeatherLink 5.4,2013-04-19 10:34:00,
2013-04-19 06:40:00,74.2,69.4,29.91,North,-999,0.0,0.0,85,0.00,,,-99.99,46,WeatherLink 5.4,2013-04-19 10:40:00,
2013-04-19 06:46:00,74.4,69.6,29.91,North,-999,0.0,0.0,85,0.00,,,-99.99,58,WeatherLink 5.4,2013-04-19 10:46:00,
2013-04-19 06:51:00,74.6,69.4,29.91,North,-999,0.0,0.0,84,0.00,,,-99.99,53,WeatherLink 5.4,2013-04-19 10:51:00,
2013-04-19 06:56:00,74.6,69.4,29.92,North,-999,0.0,0.0,84,0.00,,,-99.99,118,WeatherLink 5.4,2013-04-19 10:56:00,
2013-04-19 07:02:00,74.9,69.4,29.92,North,-999,0.0,0.0,83,0.00,,,-99.99,84,WeatherLink 5.4,2013-04-19 11:02:00,
2013-04-19 07:07:00,75.2,69.3,29.92,ESE,112,2.0,5.0,82,0.00,,,-99.99,78,WeatherLink 5.4,2013-04-19 11:07:00,
2013-04-19 07:13:00,75.4,69.2,29.92,ESE,112,2.0,3.0,81,0.00,,,-99.99,111,WeatherLink 5.4,2013-04-19 11:13:00,
2013-04-19 07:19:00,75.8,69.2,29.92,ESE,112,4.0,7.0,80,0.00,,,-99.99,120,WeatherLink 5.4,2013-04-19 11:19:00,
2013-04-19 07:24:00,76.3,69.3,29.92,ENE,67,6.0,17.0,79,0.00,,,-99.99,262,WeatherLink 5.4,2013-04-19 11:24:00,
2013-04-19 07:29:00,76.8,68.3,29.92,East,90,8.0,11.0,75,0.01,,,-99.99,107,WeatherLink 5.4,2013-04-19 11:29:00,
2013-04-19 07:35:00,77.4,68.5,29.92,ESE,112,6.0,7.0,74,0.01,,,-99.99,194,WeatherLink 5.4,2013-04-19 11:35:00,
2013-04-19 07:40:00,77.7,68.7,29.92,East,90,3.0,6.0,74,0.01,,,-99.99,229,WeatherLink 5.4,2013-04-19 11:40:00,
2013-04-19 07:45:00,78.1,68.7,29.92,ESE,112,10.0,20.0,73,0.01,,,-99.99,334,WeatherLink 5.4,2013-04-19 11:45:00,
2013-04-19 07:51:00,78.3,68.9,29.92,ENE,67,6.0,12.0,73,0.01,,,-99.99,334,WeatherLink 5.4,2013-04-19 11:51:00,
2013-04-19 07:57:00,78.5,68.7,29.92,East,90,8.0,13.0,72,0.01,,,-99.99,457,WeatherLink 5.4,2013-04-19 11:57:00,
2013-04-19 08:02:00,78.8,69.0,29.92,East,90,3.0,6.0,72,0.01,,,-99.99,465,WeatherLink 5.4,2013-04-19 12:02:00,
2013-04-19 08:07:00,78.9,68.3,29.92,ESE,112,4.0,7.0,70,0.01,,,-99.99,183,WeatherLink 5.4,2013-04-19 12:07:00,
2013-04-19 08:12:00,78.8,68.6,29.92,ENE,67,7.0,12.0,71,0.01,,,-99.99,200,WeatherLink 5.4,2013-04-19 12:12:00,
2013-04-19 08:18:00,78.8,68.6,29.92,ENE,67,5.0,10.0,71,0.01,,,-99.99,230,WeatherLink 5.4,2013-04-19 12:18:00,
2013-04-19 08:23:00,78.8,68.2,29.92,ESE,112,6.0,10.0,70,0.01,,,-99.99,194,WeatherLink 5.4,2013-04-19 12:23:00,
2013-04-19 08:29:00,79.0,68.4,29.93,East,90,9.0,13.0,70,0.00,,,-99.99,245,WeatherLink 5.4,2013-04-19 12:29:00,
2013-04-19 08:34:00,79.0,68.4,29.93,East,90,9.0,16.0,70,0.00,,,-99.99,653,WeatherLink 5.4,2013-04-19 12:34:00,
2013-04-19 08:40:00,79.2,68.6,29.94,East,90,6.0,12.0,70,0.00,,,-99.99,283,WeatherLink 5.4,2013-04-19 12:40:00,
2013-04-19 08:46:00,79.2,68.6,29.94,East,90,3.0,6.0,70,0.00,,,-99.99,322,WeatherLink 5.4,2013-04-19 12:46:00,
2013-04-19 08:52:00,79.6,67.7,29.94,East,90,9.0,12.0,67,0.00,,,-99.99,313,WeatherLink 5.4,2013-04-19 12:52:00,
2013-04-19 08:57:00,79.8,67.4,29.94,East,90,6.0,13.0,66,0.00,,,-99.99,284,WeatherLink 5.4,2013-04-19 12:57:00,
2013-04-19 09:03:00,79.8,67.4,29.94,East,90,11.0,19.0,66,0.00,,,-99.99,181,WeatherLink 5.4,2013-04-19 13:03:00,
2013-04-19 09:08:00,79.6,67.7,29.94,East,90,8.0,18.0,67,0.00,,,-99.99,239,WeatherLink 5.4,2013-04-19 13:08:00,
2013-04-19 09:14:00,79.4,67.5,29.94,East,90,8.0,12.0,67,0.00,,,-99.99,452,WeatherLink 5.4,2013-04-19 13:14:00,
2013-04-19 09:20:00,80.1,68.2,29.94,ENE,67,5.0,10.0,67,0.00,,,-99.99,341,WeatherLink 5.4,2013-04-19 13:20:00,
2013-04-19 09:26:00,80.1,67.7,29.94,ESE,112,9.0,17.0,66,0.00,,,-99.99,274,WeatherLink 5.4,2013-04-19 13:26:00,
2013-04-19 09:31:00,80.0,68.5,29.94,East,90,5.0,11.0,68,0.00,,,-99.99,253,WeatherLink 5.4,2013-04-19 13:31:00,
2013-04-19 09:37:00,79.8,67.9,29.94,East,90,10.0,16.0,67,0.00,,,-99.99,227,WeatherLink 5.4,2013-04-19 13:37:00,
2013-04-19 09:42:00,80.0,68.1,29.94,ESE,112,2.0,6.0,67,0.00,,,-99.99,274,WeatherLink 5.4,2013-04-19 13:42:00,
2013-04-19 09:47:00,80.1,68.2,29.94,East,90,7.0,12.0,67,0.00,,,-99.99,317,WeatherLink 5.4,2013-04-19 13:47:00,
2013-04-19 09:52:00,79.9,68.0,29.94,East,90,2.0,6.0,67,0.00,,,-99.99,283,WeatherLink 5.4,2013-04-19 13:52:00,
2013-04-19 09:58:00,79.9,68.0,29.95,ENE,67,5.0,13.0,67,0.00,,,-99.99,354,WeatherLink 5.4,2013-04-19 13:58:00,
2013-04-19 10:04:00,79.9,67.5,29.95,East,90,8.0,16.0,66,0.00,,,-99.99,396,WeatherLink 5.4,2013-04-19 14:04:00,
2013-04-19 10:09:00,80.3,67.0,29.95,East,90,3.0,8.0,64,0.00,,,-99.99,223,WeatherLink 5.4,2013-04-19 14:09:00,
2013-04-19 10:15:00,80.3,66.6,29.95,East,90,6.0,13.0,63,0.00,,,-99.99,347,WeatherLink 5.4,2013-04-19 14:15:00,
2013-04-19 10:21:00,80.3,66.6,29.95,ESE,112,1.0,6.0,63,0.00,,,-99.99,480,WeatherLink 5.4,2013-04-19 14:21:00,
2013-04-19 10:27:00,80.9,66.7,29.94,East,90,8.0,14.0,62,0.00,,,-99.99,394,WeatherLink 5.4,2013-04-19 14:27:00,
2013-04-19 10:33:00,80.9,67.1,29.94,East,90,4.0,8.0,63,0.00,,,-99.99,355,WeatherLink 5.4,2013-04-19 14:33:00,
2013-04-19 10:39:00,81.1,67.3,29.94,East,90,11.0,19.0,63,0.00,,,-99.99,484,WeatherLink 5.4,2013-04-19 14:39:00,
2013-04-19 10:44:00,81.1,66.8,29.94,East,90,3.0,8.0,62,0.00,,,-99.99,419,WeatherLink 5.4,2013-04-19 14:44:00,
2013-04-19 10:49:00,81.1,66.8,29.94,ENE,67,9.0,15.0,62,0.00,,,-99.99,394,WeatherLink 5.4,2013-04-19 14:49:00,
2013-04-19 10:55:00,80.9,67.1,29.94,East,90,3.0,11.0,63,0.00,,,-99.99,333,WeatherLink 5.4,2013-04-19 14:55:00,
2013-04-19 11:01:00,81.1,67.8,29.94,East,90,9.0,12.0,64,0.00,,,-99.99,399,WeatherLink 5.4,2013-04-19 15:01:00,
2013-04-19 11:07:00,81.1,67.3,29.94,ESE,112,2.0,5.0,63,0.00,,,-99.99,346,WeatherLink 5.4,2013-04-19 15:07:00,
2013-04-19 11:13:00,81.1,66.8,29.94,ENE,67,3.0,10.0,62,0.00,,,-99.99,442,WeatherLink 5.4,2013-04-19 15:13:00,
2013-04-19 11:19:00,81.1,67.8,29.94,East,90,7.0,17.0,64,0.00,,,-99.99,290,WeatherLink 5.4,2013-04-19 15:19:00,
2013-04-19 11:24:00,80.7,67.8,29.94,ESE,112,2.0,10.0,65,0.00,,,-99.99,283,WeatherLink 5.4,2013-04-19 15:24:00,
2013-04-19 11:30:00,80.5,66.7,29.94,ESE,112,3.0,12.0,63,0.00,,,-99.99,470,WeatherLink 5.4,2013-04-19 15:30:00,
2013-04-19 11:36:00,81.0,67.7,29.94,ESE,112,9.0,19.0,64,0.00,,,-99.99,457,WeatherLink 5.4,2013-04-19 15:36:00,
2013-04-19 11:41:00,81.1,67.3,29.94,East,90,5.0,12.0,63,0.00,,,-99.99,361,WeatherLink 5.4,2013-04-19 15:41:00,
2013-04-19 11:46:00,81.3,66.6,29.94,SE,135,5.0,12.0,61,0.00,,,-99.99,1089,WeatherLink 5.4,2013-04-19 15:46:00,
2013-04-19 11:52:00,81.8,67.5,29.94,North,-999,0.0,0.0,62,0.00,,,-99.99,653,WeatherLink 5.4,2013-04-19 15:52:00,
2013-04-19 11:58:00,82.1,67.3,29.93,NE,45,3.0,12.0,61,0.00,,,-99.99,575,WeatherLink 5.4,2013-04-19 15:58:00,
2013-04-19 12:04:00,81.8,67.5,29.93,ENE,67,5.0,11.0,62,0.00,,,-99.99,357,WeatherLink 5.4,2013-04-19 16:04:00,
2013-04-19 12:09:00,81.8,67.5,29.93,East,90,2.0,7.0,62,0.00,,,-99.99,394,WeatherLink 5.4,2013-04-19 16:09:00,
2013-04-19 12:15:00,81.8,66.6,29.93,East,90,5.0,14.0,60,0.00,,,-99.99,632,WeatherLink 5.4,2013-04-19 16:15:00,
2013-04-19 12:20:00,82.0,67.2,29.93,East,90,3.0,7.0,61,0.00,,,-99.99,394,WeatherLink 5.4,2013-04-19 16:20:00,
2013-04-19 12:26:00,81.8,68.0,29.93,East,90,5.0,11.0,63,0.00,,,-99.99,318,WeatherLink 5.4,2013-04-19 16:26:00,
2013-04-19 12:32:00,81.8,67.5,29.93,East,90,7.0,17.0,62,0.00,,,-99.99,322,WeatherLink 5.4,2013-04-19 16:32:00,
2013-04-19 12:37:00,81.6,67.3,29.93,ENE,67,6.0,13.0,62,0.00,,,-99.99,429,WeatherLink 5.4,2013-04-19 16:37:00,
2013-04-19 12:43:00,81.4,67.1,29.92,East,90,1.0,5.0,62,0.00,,,-99.99,327,WeatherLink 5.4,2013-04-19 16:43:00,
2013-04-19 12:49:00,81.4,66.7,29.92,East,90,6.0,10.0,61,0.00,,,-99.99,362,WeatherLink 5.4,2013-04-19 16:49:00,
2013-04-19 12:55:00,81.2,66.5,29.92,East,90,4.0,10.0,61,0.00,,,-99.99,450,WeatherLink 5.4,2013-04-19 16:55:00,
2013-04-19 13:01:00,81.2,67.4,29.92,East,90,7.0,17.0,63,0.00,,,-99.99,466,WeatherLink 5.4,2013-04-19 17:01:00,
2013-04-19 13:07:00,81.4,67.6,29.92,East,90,1.0,7.0,63,0.00,,,-99.99,320,WeatherLink 5.4,2013-04-19 17:07:00,
2013-04-19 13:12:00,81.2,67.9,29.92,East,90,0.0,2.0,64,0.00,,,-99.99,197,WeatherLink 5.4,2013-04-19 17:12:00,
2013-04-19 13:18:00,80.8,67.5,29.92,East,90,7.0,12.0,64,0.00,,,-99.99,209,WeatherLink 5.4,2013-04-19 17:18:00,
2013-04-19 13:23:00,80.3,67.0,29.92,ENE,67,4.0,12.0,64,0.00,,,-99.99,363,WeatherLink 5.4,2013-04-19 17:23:00,
2013-04-19 13:28:00,80.3,67.0,29.92,ENE,67,5.0,16.0,64,0.00,,,-99.99,326,WeatherLink 5.4,2013-04-19 17:28:00,
2013-04-19 13:34:00,80.3,66.6,29.92,East,90,6.0,13.0,63,0.00,,,-99.99,385,WeatherLink 5.4,2013-04-19 17:34:00,
2013-04-19 13:39:00,80.5,66.7,29.92,East,90,2.0,8.0,63,0.00,,,-99.99,419,WeatherLink 5.4,2013-04-19 17:39:00,
2013-04-19 13:44:00,80.5,66.7,29.91,East,90,5.0,10.0,63,0.00,,,-99.99,486,WeatherLink 5.4,2013-04-19 17:44:00,
2013-04-19 13:50:00,80.9,67.1,29.91,East,90,7.0,18.0,63,0.00,,,-99.99,523,WeatherLink 5.4,2013-04-19 17:50:00,
2013-04-19 13:56:00,80.9,67.1,29.91,East,90,3.0,8.0,63,0.00,,,-99.99,406,WeatherLink 5.4,2013-04-19 17:56:00,
2013-04-19 14:02:00,80.9,66.7,29.91,East,90,4.0,11.0,62,0.00,,,-99.99,385,WeatherLink 5.4,2013-04-19 18:02:00,
2013-04-19 14:08:00,80.9,66.7,29.91,ENE,67,4.0,8.0,62,0.00,,,-99.99,380,WeatherLink 5.4,2013-04-19 18:08:00,
2013-04-19 14:14:00,80.9,67.1,29.90,East,90,3.0,7.0,63,0.00,,,-99.99,406,WeatherLink 5.4,2013-04-19 18:14:00,
2013-04-19 14:19:00,80.9,67.1,29.90,East,90,1.0,6.0,63,0.00,,,-99.99,429,WeatherLink 5.4,2013-04-19 18:19:00,
2013-04-19 14:25:00,81.1,67.3,29.89,East,90,2.0,5.0,63,0.00,,,-99.99,501,WeatherLink 5.4,2013-04-19 18:25:00,
2013-04-19 14:31:00,81.1,67.8,29.89,ENE,67,2.0,6.0,64,0.00,,,-99.99,426,WeatherLink 5.4,2013-04-19 18:31:00,
2013-04-19 14:36:00,80.9,67.6,29.89,East,90,4.0,11.0,64,0.00,,,-99.99,452,WeatherLink 5.4,2013-04-19 18:36:00,
2013-04-19 14:41:00,80.9,67.6,29.89,East,90,2.0,3.0,64,0.00,,,-99.99,343,WeatherLink 5.4,2013-04-19 18:41:00,
2013-04-19 14:47:00,80.9,67.1,29.89,ENE,67,2.0,7.0,63,0.00,,,-99.99,277,WeatherLink 5.4,2013-04-19 18:47:00,
2013-04-19 14:52:00,80.7,66.9,29.89,East,90,4.0,9.0,63,0.00,,,-99.99,368,WeatherLink 5.4,2013-04-19 18:52:00,
2013-04-19 14:57:00,80.9,67.1,29.89,East,90,4.0,12.0,63,0.00,,,-99.99,457,WeatherLink 5.4,2013-04-19 18:57:00,
2013-04-19 15:03:00,80.9,67.6,29.89,ESE,112,3.0,7.0,64,0.00,,,-99.99,350,WeatherLink 5.4,2013-04-19 19:03:00,
2013-04-19 15:08:00,80.7,67.4,29.89,East,90,7.0,13.0,64,0.00,,,-99.99,220,WeatherLink 5.4,2013-04-19 19:08:00,
2013-04-19 15:14:00,80.5,67.2,29.89,East,90,4.0,8.0,64,0.00,,,-99.99,267,WeatherLink 5.4,2013-04-19 19:14:00,
2013-04-19 15:19:00,80.5,67.2,29.89,East,90,1.0,3.0,64,0.00,,,-99.99,341,WeatherLink 5.4,2013-04-19 19:19:00,
2013-04-19 15:25:00,80.7,67.4,29.89,East,90,2.0,7.0,64,0.00,,,-99.99,260,WeatherLink 5.4,2013-04-19 19:25:00,
2013-04-19 15:30:00,80.7,67.4,29.89,ESE,112,5.0,11.0,64,0.00,,,-99.99,297,WeatherLink 5.4,2013-04-19 19:30:00,
2013-04-19 15:35:00,80.7,67.4,29.89,East,90,7.0,19.0,64,0.00,,,-99.99,190,WeatherLink 5.4,2013-04-19 19:35:00,
2013-04-19 15:42:00,80.5,66.7,29.89,East,90,4.0,12.0,63,0.00,,,-99.99,246,WeatherLink 5.4,2013-04-19 19:42:00,
2013-04-19 15:48:00,80.3,67.0,29.89,East,90,2.0,6.0,64,0.00,,,-99.99,382,WeatherLink 5.4,2013-04-19 19:48:00,
2013-04-19 15:53:00,80.5,67.6,29.89,North,-999,0.0,0.0,65,0.00,,,-99.99,260,WeatherLink 5.4,2013-04-19 19:53:00,
2013-04-19 15:58:00,80.3,67.5,29.89,East,90,3.0,7.0,65,0.00,,,-99.99,273,WeatherLink 5.4,2013-04-19 19:58:00,
2013-04-19 16:04:00,80.5,67.2,29.89,East,90,5.0,11.0,64,0.00,,,-99.99,509,WeatherLink 5.4,2013-04-19 20:04:00,
2013-04-19 16:10:00,80.5,66.3,29.89,East,90,3.0,8.0,62,0.00,,,-99.99,308,WeatherLink 5.4,2013-04-19 20:10:00,
2013-04-19 16:16:00,80.5,65.8,29.89,East,90,9.0,20.0,61,0.00,,,-99.99,287,WeatherLink 5.4,2013-04-19 20:16:00,
2013-04-19 16:22:00,80.5,65.8,29.89,East,90,7.0,12.0,61,0.00,,,-99.99,267,WeatherLink 5.4,2013-04-19 20:22:00,
2013-04-19 16:27:00,80.7,66.5,29.89,East,90,0.0,3.0,62,0.00,,,-99.99,512,WeatherLink 5.4,2013-04-19 20:27:00,
2013-04-19 16:33:00,80.9,67.1,29.89,NE,45,1.0,6.0,63,0.00,,,-99.99,176,WeatherLink 5.4,2013-04-19 20:33:00,
2013-04-19 16:39:00,80.7,67.4,29.90,ESE,112,2.0,6.0,64,0.00,,,-99.99,185,WeatherLink 5.4,2013-04-19 20:39:00,
2013-04-19 16:44:00,80.5,67.2,29.90,ESE,112,5.0,7.0,64,0.00,,,-99.99,118,WeatherLink 5.4,2013-04-19 20:44:00,
2013-04-19 16:50:00,80.4,67.6,29.90,East,90,1.0,3.0,65,0.00,,,-99.99,86,WeatherLink 5.4,2013-04-19 20:50:00,
2013-04-19 16:56:00,80.1,66.8,29.89,East,90,1.0,2.0,64,0.00,,,-99.99,118,WeatherLink 5.4,2013-04-19 20:56:00,
2013-04-19 17:02:00,80.1,66.8,29.89,East,90,3.0,7.0,64,0.00,,,-99.99,138,WeatherLink 5.4,2013-04-19 21:02:00,
2013-04-19 17:08:00,79.9,67.1,29.89,East,90,3.0,11.0,65,0.00,,,-99.99,143,WeatherLink 5.4,2013-04-19 21:08:00,
2013-04-19 17:13:00,79.9,66.6,29.90,East,90,3.0,12.0,64,0.00,,,-99.99,111,WeatherLink 5.4,2013-04-19 21:13:00,
2013-04-19 17:18:00,79.9,66.6,29.90,East,90,2.0,8.0,64,0.00,,,-99.99,90,WeatherLink 5.4,2013-04-19 21:18:00,
2013-04-19 17:24:00,79.8,66.1,29.90,East,90,4.0,10.0,63,0.00,,,-99.99,106,WeatherLink 5.4,2013-04-19 21:24:00,
2013-04-19 17:29:00,79.8,66.5,29.90,East,90,5.0,11.0,64,0.00,,,-99.99,137,WeatherLink 5.4,2013-04-19 21:29:00,
2013-04-19 17:35:00,79.8,66.5,29.90,East,90,7.0,14.0,64,0.00,,,-99.99,195,WeatherLink 5.4,2013-04-19 21:35:00,
2013-04-19 17:41:00,79.8,66.5,29.90,East,90,5.0,12.0,64,0.00,,,-99.99,118,WeatherLink 5.4,2013-04-19 21:41:00,
2013-04-19 17:46:00,79.8,67.0,29.90,ENE,67,2.0,6.0,65,0.00,,,-99.99,95,WeatherLink 5.4,2013-04-19 21:46:00,
2013-04-19 17:52:00,79.8,67.9,29.90,East,90,5.0,10.0,67,0.00,,,-99.99,55,WeatherLink 5.4,2013-04-19 21:52:00,
2013-04-19 17:57:00,79.6,67.7,29.90,East,90,3.0,11.0,67,0.00,,,-99.99,48,WeatherLink 5.4,2013-04-19 21:57:00,
2013-04-19 18:03:00,79.2,67.7,29.90,East,90,3.0,7.0,68,0.00,,,-99.99,49,WeatherLink 5.4,2013-04-19 22:03:00,
2013-04-19 18:08:00,79.2,67.7,29.90,East,90,3.0,8.0,68,0.00,,,-99.99,70,WeatherLink 5.4,2013-04-19 22:08:00,
2013-04-19 18:14:00,79.2,68.1,29.91,East,90,4.0,10.0,69,0.00,,,-99.99,51,WeatherLink 5.4,2013-04-19 22:14:00,
2013-04-19 18:20:00,79.0,67.5,29.91,East,90,3.0,10.0,68,0.00,,,-99.99,26,WeatherLink 5.4,2013-04-19 22:20:00,
2013-04-19 18:25:00,79.0,68.0,29.91,East,90,4.0,8.0,69,0.00,,,-99.99,28,WeatherLink 5.4,2013-04-19 22:25:00,
2013-04-19 18:30:00,78.8,66.9,29.91,East,90,1.0,3.0,67,0.00,,,-99.99,25,WeatherLink 5.4,2013-04-19 22:30:00,
2013-04-19 18:36:00,78.8,67.3,29.91,ESE,112,2.0,6.0,68,0.00,,,-99.99,14,WeatherLink 5.4,2013-04-19 22:36:00,
2013-04-19 18:41:00,78.8,67.3,29.91,East,90,9.0,18.0,68,0.00,,,-99.99,9,WeatherLink 5.4,2013-04-19 22:41:00,
2013-04-19 18:47:00,78.6,66.3,29.91,East,90,5.0,12.0,66,0.00,,,-99.99,7,WeatherLink 5.4,2013-04-19 22:47:00,
2013-04-19 18:52:00,78.6,66.3,29.91,East,90,6.0,16.0,66,0.00,,,-99.99,5,WeatherLink 5.4,2013-04-19 22:52:00,
2013-04-19 18:58:00,78.6,66.3,29.92,East,90,1.0,6.0,66,0.00,,,-99.99,0,WeatherLink 5.4,2013-04-19 22:58:00,
2013-04-19 19:03:00,78.6,66.7,29.92,East,90,3.0,7.0,67,0.00,,,-99.99,0,WeatherLink 5.4,2013-04-19 23:03:00,
2013-04-19 19:09:00,78.5,67.1,29.92,East,90,4.0,8.0,68,0.00,,,-99.99,0,WeatherLink 5.4,2013-04-19 23:09:00,
2013-04-19 19:14:00,78.5,67.1,29.92,ENE,67,1.0,6.0,68,0.00,,,-99.99,0,WeatherLink 5.4,2013-04-19 23:14:00,
2013-04-19 19:20:00,78.3,67.3,29.92,East,90,4.0,10.0,69,0.00,,,-99.99,0,WeatherLink 5.4,2013-04-19 23:20:00,
2013-04-19 19:26:00,78.3,67.3,29.93,North,0,1.0,5.0,69,0.00,,,-99.99,0,WeatherLink 5.4,2013-04-19 23:26:00,
2013-04-19 19:32:00,78.3,67.3,29.93,ESE,112,2.0,4.0,69,0.00,,,-99.99,0,WeatherLink 5.4,2013-04-19 23:32:00,
2013-04-19 19:37:00,78.3,67.3,29.93,East,90,4.0,8.0,69,0.00,,,-99.99,0,WeatherLink 5.4,2013-04-19 23:37:00,
2013-04-19 19:43:00,78.3,67.7,29.93,East,90,0.0,2.0,70,0.00,,,-99.99,0,WeatherLink 5.4,2013-04-19 23:43:00,
2013-04-19 19:48:00,78.1,67.5,29.93,North,-999,0.0,0.0,70,0.00,,,-99.99,0,WeatherLink 5.4,2013-04-19 23:48:00,
2013-04-19 19:54:00,78.1,67.1,29.94,East,90,1.0,8.0,69,0.00,,,-99.99,0,WeatherLink 5.4,2013-04-19 23:54:00,
2013-04-19 20:00:00,78.1,67.1,29.94,East,90,6.0,8.0,69,0.00,,,-99.99,0,WeatherLink 5.4,2013-04-20 00:00:00,
2013-04-19 20:06:00,78.1,67.1,29.94,East,90,2.0,6.0,69,0.00,,,-99.99,0,WeatherLink 5.4,2013-04-20 00:06:00,
2013-04-19 20:11:00,78.1,67.1,29.94,East,90,4.0,8.0,69,0.00,,,-99.99,0,WeatherLink 5.4,2013-04-20 00:11:00,
2013-04-19 20:17:00,78.1,67.1,29.94,ESE,112,4.0,13.0,69,0.00,,,-99.99,0,WeatherLink 5.4,2013-04-20 00:17:00,
2013-04-19 20:22:00,78.1,67.1,29.94,East,90,6.0,11.0,69,0.00,,,-99.99,0,WeatherLink 5.4,2013-04-20 00:22:00,
2013-04-19 20:28:00,78.1,67.1,29.94,East,90,8.0,11.0,69,0.00,,,-99.99,0,WeatherLink 5.4,2013-04-20 00:28:00,
2013-04-19 20:33:00,78.1,67.1,29.94,ESE,112,2.0,6.0,69,0.00,,,-99.99,0,WeatherLink 5.4,2013-04-20 00:33:00,
2013-04-19 20:39:00,78.1,67.1,29.95,ESE,112,2.0,6.0,69,0.00,,,-99.99,0,WeatherLink 5.4,2013-04-20 00:39:00,
2013-04-19 20:44:00,77.9,67.3,29.95,East,90,5.0,8.0,70,0.00,,,-99.99,0,WeatherLink 5.4,2013-04-20 00:44:00,
2013-04-19 20:50:00,77.9,67.3,29.95,North,0,1.0,6.0,70,0.00,,,-99.99,0,WeatherLink 5.4,2013-04-20 00:50:00,
2013-04-19 20:56:00,78.1,67.9,29.95,ENE,67,2.0,11.0,71,0.00,,,-99.99,0,WeatherLink 5.4,2013-04-20 00:56:00,
2013-04-19 21:01:00,78.1,67.9,29.95,East,90,5.0,10.0,71,0.00,,,-99.99,0,WeatherLink 5.4,2013-04-20 01:01:00,
2013-04-19 21:07:00,78.1,67.9,29.95,East,90,3.0,7.0,71,0.00,,,-99.99,0,WeatherLink 5.4,2013-04-20 01:07:00,
2013-04-19 21:13:00,78.1,67.9,29.96,East,90,2.0,7.0,71,0.00,,,-99.99,0,WeatherLink 5.4,2013-04-20 01:13:00,
2013-04-19 21:18:00,77.9,67.7,29.96,East,90,5.0,8.0,71,0.00,,,-99.99,0,WeatherLink 5.4,2013-04-20 01:18:00,
2013-04-19 21:24:00,77.9,67.7,29.96,East,90,4.0,10.0,71,0.00,,,-99.99,0,WeatherLink 5.4,2013-04-20 01:24:00,
2013-04-19 21:30:00,77.9,67.7,29.95,ESE,112,4.0,7.0,71,0.00,,,-99.99,0,WeatherLink 5.4,2013-04-20 01:30:00,
2013-04-19 21:35:00,77.9,67.7,29.95,East,90,1.0,6.0,71,0.00,,,-99.99,0,WeatherLink 5.4,2013-04-20 01:35:00,
2013-04-19 21:40:00,77.9,67.7,29.96,ESE,112,2.0,8.0,71,0.00,,,-99.99,0,WeatherLink 5.4,2013-04-20 01:40:00,
2013-04-19 21:47:00,77.9,67.7,29.96,North,-999,0.0,0.0,71,0.00,,,-99.99,0,WeatherLink 5.4,2013-04-20 01:47:00,
2013-04-19 21:53:00,78.0,68.2,29.96,North,-999,0.0,0.0,72,0.00,,,-99.99,0,WeatherLink 5.4,2013-04-20 01:53:00,
2013-04-19 21:58:00,77.9,68.1,29.95,North,-999,0.0,0.0,72,0.00,,,-99.99,0,WeatherLink 5.4,2013-04-20 01:58:00,
2013-04-19 22:03:00,77.7,67.5,29.95,ESE,112,6.0,8.0,71,0.00,,,-99.99,0,WeatherLink 5.4,2013-04-20 02:03:00,
2013-04-19 22:08:00,77.7,67.1,29.95,ESE,112,6.0,8.0,70,0.00,,,-99.99,0,WeatherLink 5.4,2013-04-20 02:08:00,
2013-04-19 22:14:00,77.7,67.5,29.96,ESE,112,1.0,6.0,71,0.00,,,-99.99,0,WeatherLink 5.4,2013-04-20 02:14:00,
2013-04-19 22:19:00,77.6,67.9,29.96,East,90,8.0,14.0,72,0.00,,,-99.99,0,WeatherLink 5.4,2013-04-20 02:19:00,
2013-04-19 22:24:00,77.3,68.0,29.97,East,90,5.0,9.0,73,0.00,,,-99.99,0,WeatherLink 5.4,2013-04-20 02:24:00,
2013-04-19 22:30:00,76.8,68.7,29.97,North,-999,0.0,0.0,76,0.00,,,-99.99,0,WeatherLink 5.4,2013-04-20 02:30:00,
2013-04-19 22:36:00,76.5,68.7,29.97,North,-999,0.0,0.0,77,0.00,,,-99.99,0,WeatherLink 5.4,2013-04-20 02:36:00,
2013-04-19 22:42:00,76.3,69.7,29.97,North,-999,0.0,0.0,80,0.05,,,-99.99,0,WeatherLink 5.4,2013-04-20 02:42:00,
2013-04-19 22:47:00,76.0,70.1,29.97,East,90,6.0,8.0,82,0.06,,,-99.99,0,WeatherLink 5.4,2013-04-20 02:47:00,
2013-04-19 22:53:00,75.3,70.1,29.97,North,-999,0.0,0.0,84,0.07,,,-99.99,0,WeatherLink 5.4,2013-04-20 02:53:00,
2013-04-19 22:59:00,75.0,69.8,29.97,ESE,112,2.0,8.0,84,0.07,,,-99.99,0,WeatherLink 5.4,2013-04-20 02:59:00,
2013-04-19 23:05:00,74.9,70.1,29.97,North,-999,0.0,0.0,85,0.07,,,-99.99,0,WeatherLink 5.4,2013-04-20 03:05:00,
2013-04-19 23:11:00,74.7,70.2,29.97,North,-999,0.0,0.0,86,0.09,,,-99.99,0,WeatherLink 5.4,2013-04-20 03:11:00,
2013-04-19 23:16:00,74.6,70.1,29.97,North,-999,0.0,0.0,86,0.09,,,-99.99,0,WeatherLink 5.4,2013-04-20 03:16:00,
2013-04-19 23:22:00,74.6,70.5,29.97,North,-999,0.0,0.0,87,0.09,,,-99.99,0,WeatherLink 5.4,2013-04-20 03:22:00,
2013-04-19 23:28:00,74.4,70.3,29.96,North,-999,0.0,0.0,87,0.09,,,-99.99,0,WeatherLink 5.4,2013-04-20 03:28:00,
2013-04-19 23:33:00,74.4,70.3,29.96,North,-999,0.0,0.0,87,0.09,,,-99.99,0,WeatherLink 5.4,2013-04-20 03:33:00,
2013-04-19 23:38:00,74.4,70.3,29.96,North,-999,0.0,0.0,87,0.09,,,-99.99,0,WeatherLink 5.4,2013-04-20 03:38:00,
2013-04-19 23:44:00,74.4,70.6,29.95,North,-999,0.0,0.0,88,0.03,,,-99.99,0,WeatherLink 5.4,2013-04-20 03:44:00,
2013-04-19 23:50:00,74.4,70.6,29.95,North,-999,0.0,0.0,88,0.03,,,-99.99,0,WeatherLink 5.4,2013-04-20 03:50:00,
2013-04-19 23:56:00,74.3,70.5,29.95,North,-999,0.0,0.0,88,0.02,,,-99.99,0,WeatherLink 5.4,2013-04-20 03:56:00,